Time;durP1;ratioP1;P1;durP2;ratioP2;P2;SDS_P1;SDS_P2;PMS_P1;PMS_P2;Temp;Humidity;BMP_temperature;BMP_pressure;BME280_temperature;BME280_humidity;BME280_pressure;Samples;Min_cycle;Max_cycle;Signal;HPM_P1;HPM_P2
2022/01/14 00:03:19;;;;;;;;;;;15.10;34.70;;;;;;8366590;28;19967;-47
2022/01/14 00:07:20;;;;;;;;;;;15.10;34.70;;;;;;8365859;28;19923;-47
2022/01/14 00:11:20;;;;;;;;;;;15.10;34.70;;;;;;8366582;28;19928;-47
2022/01/14 00:15:24;;;;;;;;;;;15.10;34.70;;;;;;8366154;28;19916;-46
2022/01/14 00:19:25;;;;;;;;;;;15.10;34.60;;;;;;8365049;28;20001;-47
2022/01/14 00:23:27;;;;;;;;;;;15.10;34.60;;;;;;8366065;28;20269;-46
2022/01/14 00:31:59;;;;;;;;;;;15.10;34.60;;;;;;8365336;28;20012;-46
2022/01/14 00:35:59;;;;;;;;;;;15.10;34.60;;;;;;8365687;28;19924;-47
2022/01/14 00:39:59;;;;;;;;;;;15.10;34.70;;;;;;8364942;28;19913;-47
2022/01/14 00:44:02;;;;;;;;;;;15.10;34.70;;;;;;8365355;28;20370;-46
2022/01/14 00:48:03;;;;;;;;;;;15.10;34.70;;;;;;8365119;28;20405;-47
2022/01/14 00:52:03;;;;;;;;;;;15.10;34.60;;;;;;8364485;28;19933;-46
2022/01/14 00:56:20;;;;;;;;;;;15.10;34.60;;;;;;8365195;28;20362;-47
2022/01/14 01:00:23;;;;;;;;;;;15.10;34.60;;;;;;8368536;28;19921;-46
2022/01/14 01:04:28;;;;;;;;;;;15.10;34.60;;;;;;8364139;28;19939;-46
2022/01/14 01:08:30;;;;;;;;;;;15.10;34.60;;;;;;8364840;28;20298;-46
2022/01/14 01:12:49;;;;;;;;;;;15.10;34.60;;;;;;8364161;28;19929;-50
2022/01/14 01:16:50;;;;;;;;;;;15.10;34.70;;;;;;8364118;28;19920;-47
2022/01/14 01:20:50;;;;;;;;;;;15.00;34.60;;;;;;8364294;28;20000;-47
2022/01/14 01:24:51;;;;;;;;;;;15.00;34.60;;;;;;8363461;28;19983;-46
2022/01/14 01:33:12;;;;;;;;;;;15.00;34.50;;;;;;8332512;28;19936;-46
2022/01/14 01:37:13;;;;;;;;;;;15.00;34.50;;;;;;8363310;28;20289;-46
2022/01/14 01:41:17;;;;;;;;;;;15.00;34.50;;;;;;8363491;28;19917;-45
2022/01/14 01:45:22;;;;;;;;;;;15.00;34.50;;;;;;8363365;28;19927;-47
2022/01/14 01:49:28;;;;;;;;;;;15.00;34.50;;;;;;8362800;28;19978;-47
2022/01/14 01:53:31;;;;;;;;;;;15.00;34.60;;;;;;8363117;28;19955;-47
2022/01/14 01:57:31;;;;;;;;;;;15.00;34.50;;;;;;8363055;28;19924;-47
2022/01/14 02:01:32;;;;;;;;;;;15.00;34.50;;;;;;8362831;28;20263;-47
2022/01/14 02:05:33;;;;;;;;;;;15.00;34.60;;;;;;8363124;28;20358;-48
2022/01/14 02:09:33;;;;;;;;;;;15.00;34.60;;;;;;8362189;28;19970;-48
2022/01/14 02:13:34;;;;;;;;;;;15.00;34.60;;;;;;8362499;28;19928;-47
2022/01/14 02:17:52;;;;;;;;;;;15.00;34.60;;;;;;8363043;28;19917;-47
2022/01/14 02:22:10;;;;;;;;;;;15.00;34.60;;;;;;8364808;28;19920;-47
2022/01/14 02:26:12;;;;;;;;;;;14.90;34.60;;;;;;8362795;28;19916;-48
2022/01/14 02:30:12;;;;;;;;;;;15.00;34.60;;;;;;8362538;28;19917;-48
2022/01/14 02:34:13;;;;;;;;;;;15.00;34.50;;;;;;8362121;28;19927;-48
2022/01/14 02:38:15;;;;;;;;;;;15.00;34.60;;;;;;8362536;28;20361;-47
2022/01/14 02:42:15;;;;;;;;;;;15.00;34.60;;;;;;8368441;28;19923;-47
2022/01/14 02:46:16;;;;;;;;;;;15.00;34.50;;;;;;8368396;28;19916;-48
2022/01/14 02:50:20;;;;;;;;;;;14.90;34.50;;;;;;8368971;28;20238;-47
2022/01/14 02:54:23;;;;;;;;;;;15.00;34.50;;;;;;8368627;28;19999;-47
2022/01/14 02:58:25;;;;;;;;;;;15.00;34.60;;;;;;8368199;28;19971;-47
2022/01/14 03:02:27;;;;;;;;;;;15.00;34.50;;;;;;8368345;28;19916;-47
2022/01/14 03:06:28;;;;;;;;;;;14.90;34.50;;;;;;8368378;28;20424;-47
2022/01/14 03:10:29;;;;;;;;;;;15.00;34.60;;;;;;8367603;28;19948;-47
2022/01/14 03:14:29;;;;;;;;;;;14.90;34.50;;;;;;8368145;28;19913;-47
2022/01/14 03:18:40;;;;;;;;;;;14.90;34.50;;;;;;8368073;28;19921;-47
2022/01/14 03:22:52;;;;;;;;;;;14.90;34.50;;;;;;8367837;28;20000;-48
2022/01/14 03:26:52;;;;;;;;;;;14.90;34.50;;;;;;8371444;28;20008;-47
2022/01/14 03:30:53;;;;;;;;;;;14.90;34.50;;;;;;8367039;28;19925;-47
2022/01/14 03:34:53;;;;;;;;;;;14.90;34.50;;;;;;8367653;28;19970;-49
2022/01/14 03:38:54;;;;;;;;;;;14.90;34.50;;;;;;8367287;28;19919;-47
2022/01/14 03:42:54;;;;;;;;;;;14.90;34.50;;;;;;8367087;28;19923;-48
2022/01/14 03:46:55;;;;;;;;;;;14.90;34.40;;;;;;8366987;28;19917;-47
2022/01/14 03:50:55;;;;;;;;;;;14.90;34.40;;;;;;8365981;28;20279;-47
2022/01/14 03:54:55;;;;;;;;;;;14.90;34.40;;;;;;8366346;28;19920;-47
2022/01/14 03:58:56;;;;;;;;;;;14.90;34.40;;;;;;8366712;28;19947;-47
2022/01/14 04:02:56;;;;;;;;;;;14.90;34.40;;;;;;8366749;28;19916;-47
2022/01/14 04:06:57;;;;;;;;;;;14.90;34.50;;;;;;8365989;28;20003;-47
2022/01/14 04:11:00;;;;;;;;;;;14.90;34.50;;;;;;8366567;28;19929;-47
2022/01/14 04:19:01;;;;;;;;;;;14.90;34.40;;;;;;8366015;28;20358;-47
2022/01/14 04:23:01;;;;;;;;;;;14.90;34.50;;;;;;8366172;28;19913;-48
2022/01/14 04:27:02;;;;;;;;;;;15.00;34.50;;;;;;8365773;28;19990;-47
2022/01/14 04:31:03;;;;;;;;;;;15.00;34.40;;;;;;8365217;28;19928;-48
2022/01/14 04:35:04;;;;;;;;;;;15.00;34.40;;;;;;8365489;28;19987;-47
2022/01/14 04:39:04;;;;;;;;;;;15.10;34.40;;;;;;8365479;28;20381;-49
2022/01/14 04:43:06;;;;;;;;;;;15.10;34.30;;;;;;8365080;28;19913;-48
2022/01/14 04:47:16;;;;;;;;;;;15.10;34.30;;;;;;8365048;28;19916;-48
2022/01/14 04:51:19;;;;;;;;;;;15.10;34.30;;;;;;8365080;28;20378;-47
2022/01/14 04:55:21;;;;;;;;;;;15.10;34.20;;;;;;8364056;28;19917;-47
2022/01/14 04:59:22;;;;;;;;;;;15.10;34.20;;;;;;8364791;28;19919;-48
2022/01/14 05:03:23;;;;;;;;;;;15.10;34.20;;;;;;8364837;28;20007;-51
2022/01/14 05:07:26;;;;;;;;;;;15.10;34.20;;;;;;8364006;28;19917;-48
2022/01/14 05:11:38;;;;;;;;;;;15.10;34.20;;;;;;8357709;28;19979;-47
2022/01/14 05:15:38;;;;;;;;;;;15.10;34.10;;;;;;8367177;28;19936;-46
2022/01/14 05:19:39;;;;;;;;;;;15.10;34.20;;;;;;8363477;28;20016;-47
2022/01/14 05:23:42;;;;;;;;;;;15.10;34.10;;;;;;8364264;28;19913;-47
2022/01/14 05:27:43;;;;;;;;;;;15.10;34.20;;;;;;8363941;28;19923;-47
2022/01/14 05:31:45;;;;;;;;;;;15.00;34.10;;;;;;8363821;28;20259;-48
2022/01/14 05:35:45;;;;;;;;;;;15.10;34.20;;;;;;8363662;28;20354;-48
2022/01/14 05:39:46;;;;;;;;;;;15.00;34.20;;;;;;8363223;28;19917;-48
2022/01/14 05:43:46;;;;;;;;;;;15.00;34.20;;;;;;8363772;28;19913;-48
2022/01/14 05:47:46;;;;;;;;;;;14.90;34.20;;;;;;8363517;28;19917;-47
2022/01/14 05:51:47;;;;;;;;;;;14.90;34.20;;;;;;8362486;28;20320;-45
2022/01/14 05:55:47;;;;;;;;;;;15.00;34.30;;;;;;8363346;28;20394;-47
2022/01/14 05:59:48;;;;;;;;;;;14.90;34.30;;;;;;8363220;28;19917;-47
2022/01/14 06:03:49;;;;;;;;;;;14.90;34.20;;;;;;8362841;28;20324;-46
2022/01/14 06:07:49;;;;;;;;;;;14.90;34.30;;;;;;8362759;28;19943;-47
2022/01/14 06:11:50;;;;;;;;;;;14.90;34.30;;;;;;8362698;28;19932;-47
2022/01/14 06:15:50;;;;;;;;;;;14.90;34.20;;;;;;8361982;28;20380;-46
2022/01/14 06:19:51;;;;;;;;;;;15.00;34.30;;;;;;8362891;28;20369;-46
2022/01/14 06:23:51;;;;;;;;;;;14.90;34.20;;;;;;8363348;28;19931;-50
2022/01/14 06:27:52;;;;;;;;;;;15.00;34.20;;;;;;8362434;28;20350;-48
2022/01/14 06:31:52;;;;;;;;;;;15.00;34.20;;;;;;8362860;28;19924;-48
2022/01/14 06:35:52;;;;;;;;;;;15.00;34.10;;;;;;8362648;28;19921;-48
2022/01/14 06:39:54;;;;;;;;;;;15.00;34.10;;;;;;8362135;28;19967;-47
2022/01/14 06:43:55;;;;;;;;;;;15.00;34.10;;;;;;8363156;28;19994;-48
2022/01/14 06:47:55;;;;;;;;;;;15.00;34.10;;;;;;8362599;28;19917;-49
2022/01/14 06:51:56;;;;;;;;;;;15.00;34.10;;;;;;8361558;28;20395;-47
2022/01/14 06:55:56;;;;;;;;;;;15.00;34.00;;;;;;8362341;28;19939;-47
2022/01/14 06:59:57;;;;;;;;;;;15.00;34.10;;;;;;8361854;28;19917;-48
2022/01/14 07:03:57;;;;;;;;;;;15.00;34.10;;;;;;8361610;28;19936;-48
2022/01/14 07:07:58;;;;;;;;;;;14.90;34.00;;;;;;8361805;28;20015;-48
2022/01/14 07:12:00;;;;;;;;;;;15.00;34.10;;;;;;8361680;28;19925;-47
2022/01/14 07:16:00;;;;;;;;;;;14.90;34.10;;;;;;8361212;28;20035;-47
2022/01/14 07:20:06;;;;;;;;;;;14.90;34.10;;;;;;8361602;28;20342;-47
2022/01/14 07:24:07;;;;;;;;;;;14.90;34.20;;;;;;8366463;28;19921;-47
2022/01/14 07:28:07;;;;;;;;;;;14.90;34.20;;;;;;8364429;28;19921;-47
2022/01/14 07:32:08;;;;;;;;;;;14.80;34.10;;;;;;8366926;28;19932;-47
2022/01/14 07:36:08;;;;;;;;;;;14.80;34.20;;;;;;8367215;28;19924;-48
2022/01/14 07:40:09;;;;;;;;;;;14.80;34.20;;;;;;8366406;28;19917;-47
2022/01/14 07:44:11;;;;;;;;;;;14.80;34.20;;;;;;8367197;28;20328;-48
2022/01/14 07:48:11;;;;;;;;;;;14.80;34.20;;;;;;8366793;28;19946;-48
2022/01/14 07:52:12;;;;;;;;;;;14.80;34.20;;;;;;8366078;28;19932;-48
2022/01/14 07:56:13;;;;;;;;;;;14.80;34.10;;;;;;8366299;28;20034;-47
2022/01/14 08:00:13;;;;;;;;;;;14.80;34.20;;;;;;8366142;28;19927;-50
2022/01/14 08:04:15;;;;;;;;;;;14.80;34.20;;;;;;8365913;28;19917;-49
2022/01/14 08:08:16;;;;;;;;;;;14.80;34.20;;;;;;8338694;28;20350;-50
2022/01/14 08:12:16;;;;;;;;;;;14.80;34.20;;;;;;8352575;28;19966;-50
2022/01/14 08:16:17;;;;;;;;;;;14.80;34.20;;;;;;8365644;28;19923;-50
2022/01/14 08:20:17;;;;;;;;;;;14.80;34.20;;;;;;8365932;28;19917;-50
2022/01/14 08:24:18;;;;;;;;;;;14.80;34.20;;;;;;8366116;28;19978;-49
2022/01/14 08:28:19;;;;;;;;;;;14.80;34.10;;;;;;8365275;28;19917;-47
2022/01/14 08:32:21;;;;;;;;;;;14.80;34.70;;;;;;8365752;28;20325;-47
2022/01/14 08:36:23;;;;;;;;;;;14.80;34.20;;;;;;8364907;28;19921;-49
2022/01/14 08:40:24;;;;;;;;;;;14.80;34.20;;;;;;8363947;28;19925;-47
2022/01/14 08:44:25;;;;;;;;;;;14.80;34.10;;;;;;8364950;28;20007;-46
2022/01/14 08:48:25;;;;;;;;;;;14.80;34.10;;;;;;8364508;28;20393;-48
2022/01/14 08:52:26;;;;;;;;;;;14.80;34.10;;;;;;8364450;28;19925;-50
2022/01/14 08:56:26;;;;;;;;;;;14.80;34.10;;;;;;8364712;28;20382;-50
2022/01/14 09:00:27;;;;;;;;;;;14.80;34.10;;;;;;8364613;28;19921;-47
2022/01/14 09:04:27;;;;;;;;;;;14.80;34.20;;;;;;8364203;28;19920;-47
2022/01/14 09:08:28;;;;;;;;;;;14.80;34.20;;;;;;8363823;28;19916;-47
2022/01/14 09:12:28;;;;;;;;;;;14.80;34.10;;;;;;8363540;28;20035;-47
2022/01/14 09:16:28;;;;;;;;;;;14.80;34.10;;;;;;8363316;28;19923;-47
2022/01/14 09:20:29;;;;;;;;;;;14.80;34.10;;;;;;8363935;28;19913;-48
2022/01/14 09:24:29;;;;;;;;;;;14.80;34.10;;;;;;8364156;28;19921;-48
2022/01/14 09:28:30;;;;;;;;;;;14.80;34.10;;;;;;8363460;28;19917;-47
2022/01/14 09:32:31;;;;;;;;;;;14.80;34.10;;;;;;8363097;28;19932;-48
2022/01/14 09:36:32;;;;;;;;;;;14.80;34.10;;;;;;8363793;28;19924;-46
2022/01/14 09:40:32;;;;;;;;;;;14.80;34.10;;;;;;8362895;28;19920;-49
2022/01/14 09:44:33;;;;;;;;;;;14.80;34.10;;;;;;8363642;28;20298;-46
2022/01/14 09:48:34;;;;;;;;;;;14.80;34.20;;;;;;8363065;28;19925;-47
2022/01/14 09:52:35;;;;;;;;;;;14.80;34.10;;;;;;8362134;28;19949;-47
2022/01/14 09:56:39;;;;;;;;;;;14.80;34.10;;;;;;8362926;28;20390;-47
2022/01/14 10:00:39;;;;;;;;;;;14.90;34.20;;;;;;8362576;28;19913;-48
2022/01/14 10:04:40;;;;;;;;;;;14.90;34.20;;;;;;8362559;28;19947;-48
2022/01/14 10:08:42;;;;;;;;;;;14.90;34.30;;;;;;8362769;28;20388;-47
2022/01/14 10:12:43;;;;;;;;;;;14.90;34.20;;;;;;8362827;28;19924;-47
2022/01/14 10:16:44;;;;;;;;;;;14.90;34.30;;;;;;8361933;28;19927;-48
2022/01/14 10:20:44;;;;;;;;;;;14.90;34.20;;;;;;8362524;28;19924;-48
2022/01/14 10:24:54;;;;;;;;;;;14.90;34.30;;;;;;8362837;28;19913;-48
2022/01/14 10:28:58;;;;;;;;;;;14.90;34.30;;;;;;8362536;28;19917;-47
2022/01/14 10:33:05;;;;;;;;;;;14.90;34.30;;;;;;8362302;28;20378;-51
2022/01/14 10:37:14;;;;;;;;;;;14.90;34.30;;;;;;8362119;28;19945;-48
2022/01/14 10:41:14;;;;;;;;;;;14.90;34.30;;;;;;8362446;28;19917;-48
2022/01/14 10:45:22;;;;;;;;;;;15.00;34.30;;;;;;8362514;28;19917;-49
2022/01/14 10:49:32;;;;;;;;;;;14.90;34.80;;;;;;8361576;28;19921;-48
2022/01/14 10:53:35;;;;;;;;;;;15.00;34.30;;;;;;8362429;28;20082;-47
2022/01/14 10:57:35;;;;;;;;;;;15.00;34.30;;;;;;8362193;28;19996;-47
2022/01/14 11:01:36;;;;;;;;;;;15.00;34.30;;;;;;8364349;28;19917;-46
2022/01/14 11:05:36;;;;;;;;;;;15.00;34.20;;;;;;8345562;28;19992;-48
2022/01/14 11:09:37;;;;;;;;;;;15.00;34.20;;;;;;8364931;28;20286;-48
2022/01/14 11:13:37;;;;;;;;;;;15.00;34.30;;;;;;8367533;28;19925;-50
2022/01/14 11:17:39;;;;;;;;;;;15.00;34.30;;;;;;8368062;28;19955;-49
2022/01/14 11:26:04;;;;;;;;;;;15.00;34.30;;;;;;8334540;28;20384;-47
2022/01/14 11:30:11;;;;;;;;;;;15.00;34.30;;;;;;8334596;28;19917;-48
2022/01/14 11:34:29;;;;;;;;;;;15.00;34.30;;;;;;8334101;28;20291;-51
2022/01/14 11:38:35;;;;;;;;;;;15.00;34.30;;;;;;8334467;28;19917;-47
2022/01/14 11:42:58;;;;;;;;;;;15.10;34.30;;;;;;8334277;28;19917;-51
2022/01/14 11:47:00;;;;;;;;;;;15.00;34.30;;;;;;8334166;28;19921;-49
2022/01/14 11:51:03;;;;;;;;;;;15.10;34.40;;;;;;8334366;28;19951;-48
2022/01/14 11:55:04;;;;;;;;;;;15.10;34.40;;;;;;8333586;28;19968;-48
2022/01/14 11:59:17;;;;;;;;;;;15.10;34.40;;;;;;8333746;28;19917;-47
2022/01/14 12:03:26;;;;;;;;;;;15.10;34.40;;;;;;8333736;28;19917;-46
2022/01/14 12:07:26;;;;;;;;;;;15.10;34.30;;;;;;8334192;28;19925;-46
2022/01/14 12:11:27;;;;;;;;;;;15.10;34.40;;;;;;8333085;28;20339;-47
2022/01/14 12:15:46;;;;;;;;;;;15.10;34.40;;;;;;8333157;28;20290;-48
2022/01/14 12:19:47;;;;;;;;;;;15.10;34.40;;;;;;8341850;28;20316;-47
2022/01/14 12:23:47;;;;;;;;;;;15.10;34.40;;;;;;8366544;28;19959;-51
2022/01/14 12:27:48;;;;;;;;;;;15.10;34.30;;;;;;8365428;28;19912;-48
2022/01/14 12:32:05;;;;;;;;;;;15.10;34.30;;;;;;8366255;28;20384;-49
2022/01/14 12:36:23;;;;;;;;;;;15.10;34.40;;;;;;8365936;28;19923;-49
2022/01/14 12:40:26;;;;;;;;;;;15.10;34.40;;;;;;8365124;28;19921;-48
2022/01/14 12:44:26;;;;;;;;;;;15.10;34.40;;;;;;8365636;28;20361;-48
2022/01/14 12:52:47;;;;;;;;;;;15.20;34.40;;;;;;8364788;28;20370;-47
2022/01/14 12:56:51;;;;;;;;;;;15.20;34.40;;;;;;8365034;28;19935;-49
2022/01/14 13:01:05;;;;;;;;;;;15.20;34.40;;;;;;8364196;28;19913;-47
2022/01/14 13:05:15;;;;;;;;;;;15.20;34.40;;;;;;8364448;28;19917;-46
2022/01/14 13:09:19;;;;;;;;;;;15.20;34.40;;;;;;8364272;28;20328;-50
2022/01/14 13:13:26;;;;;;;;;;;15.20;34.40;;;;;;8364187;28;19947;-49
2022/01/14 13:17:28;;;;;;;;;;;15.20;34.30;;;;;;8364436;28;19916;-46
2022/01/14 13:21:28;;;;;;;;;;;15.20;34.30;;;;;;8364535;28;20376;-49
2022/01/14 13:25:30;;;;;;;;;;;15.20;34.40;;;;;;8363528;28;19917;-50
2022/01/14 13:29:34;;;;;;;;;;;15.20;34.30;;;;;;8363948;28;19939;-49
2022/01/14 13:33:36;;;;;;;;;;;15.20;34.40;;;;;;8363871;28;19947;-48
2022/01/14 13:37:38;;;;;;;;;;;15.20;34.40;;;;;;8351726;28;19917;-48
2022/01/14 13:41:40;;;;;;;;;;;15.20;34.30;;;;;;8327318;28;19923;-47
2022/01/14 13:45:43;;;;;;;;;;;15.30;34.70;;;;;;8327209;28;19917;-48
2022/01/14 13:49:43;;;;;;;;;;;15.20;34.30;;;;;;8326670;28;20344;-51
2022/01/14 13:53:45;;;;;;;;;;;15.10;34.60;;;;;;8344945;28;19929;-49
2022/01/14 13:57:47;;;;;;;;;;;15.10;34.50;;;;;;8332998;28;22284;-49
2022/01/14 14:01:58;;;;;;;;;;;15.10;34.30;;;;;;8362228;28;20301;-48
2022/01/14 14:06:03;;;;;;;;;;;15.20;34.30;;;;;;8347513;28;19917;-49
2022/01/14 14:10:21;;;;;;;;;;;15.20;34.30;;;;;;8327452;28;19996;-47
2022/01/14 14:18:41;;;;;;;;;;;15.20;34.30;;;;;;8342405;28;19928;-48
2022/01/14 14:22:42;;;;;;;;;;;15.30;34.20;;;;;;8331323;28;20252;-50
2022/01/14 14:26:43;;;;;;;;;;;15.20;34.30;;;;;;8353911;28;19964;-47
2022/01/14 14:30:48;;;;;;;;;;;15.30;34.30;;;;;;8329607;28;19921;-51
2022/01/14 14:34:49;;;;;;;;;;;15.30;34.30;;;;;;8326444;28;19927;-49
2022/01/14 14:38:49;;;;;;;;;;;15.20;34.30;;;;;;8340028;28;19918;-50
2022/01/14 14:42:49;;;;;;;;;;;15.20;34.30;;;;;;8337305;28;20279;-49
2022/01/14 14:46:50;;;;;;;;;;;15.30;34.30;;;;;;8337395;28;20000;-50
2022/01/14 14:50:50;;;;;;;;;;;15.30;34.30;;;;;;8349092;28;19944;-49
2022/01/14 14:54:51;;;;;;;;;;;15.30;34.40;;;;;;8333279;28;20009;-52
2022/01/14 14:58:52;;;;;;;;;;;15.30;34.30;;;;;;8333511;28;19917;-50
2022/01/14 15:02:55;;;;;;;;;;;15.30;34.40;;;;;;8335926;28;19917;-52
2022/01/14 15:06:55;;;;;;;;;;;15.30;34.40;;;;;;8337594;28;19917;-48
2022/01/14 15:10:57;;;;;;;;;;;15.20;34.30;;;;;;8335161;28;19917;-48
2022/01/14 15:15:06;;;;;;;;;;;15.30;34.40;;;;;;8332549;28;19928;-47
2022/01/14 15:19:06;;;;;;;;;;;15.30;34.40;;;;;;8331363;28;19920;-47
2022/01/14 15:23:07;;;;;;;;;;;15.10;33.00;;;;;;8331537;28;19967;-51
2022/01/14 15:27:08;;;;;;;;;;;14.60;32.10;;;;;;8321222;28;20311;-48
2022/01/14 15:31:08;;;;;;;;;;;14.20;32.70;;;;;;8328913;28;20007;-48
2022/01/14 15:35:09;;;;;;;;;;;13.90;33.00;;;;;;8334440;28;20432;-50
2022/01/14 15:39:10;;;;;;;;;;;13.80;33.80;;;;;;8331237;28;19940;-50
2022/01/14 15:43:11;;;;;;;;;;;14.00;34.50;;;;;;8352504;28;19918;-47
2022/01/14 15:47:11;;;;;;;;;;;14.30;34.40;;;;;;8326711;28;19924;-49
2022/01/14 15:51:12;;;;;;;;;;;14.60;34.10;;;;;;8328463;28;19929;-49
2022/01/14 15:55:13;;;;;;;;;;;14.90;34.00;;;;;;8319008;28;19964;-50
2022/01/14 15:59:13;;;;;;;;;;;15.10;33.90;;;;;;8317717;28;19932;-46
2022/01/14 16:03:14;;;;;;;;;;;15.30;33.80;;;;;;8319833;28;19917;-47
2022/01/14 16:07:17;;;;;;;;;;;15.40;33.70;;;;;;8320839;28;20573;-51
2022/01/14 16:11:18;;;;;;;;;;;15.50;33.80;;;;;;8327703;28;19931;-49
2022/01/14 16:15:18;;;;;;;;;;;15.50;33.80;;;;;;8331242;28;20287;-49
2022/01/14 16:19:19;;;;;;;;;;;15.60;33.90;;;;;;8321866;28;19917;-49
2022/01/14 16:23:19;;;;;;;;;;;15.60;33.90;;;;;;8333087;28;19913;-47
2022/01/14 16:27:20;;;;;;;;;;;15.60;33.90;;;;;;8312955;28;19971;-51
2022/01/14 16:31:20;;;;;;;;;;;15.60;33.90;;;;;;8332027;28;19931;-47
2022/01/14 16:35:21;;;;;;;;;;;15.60;33.90;;;;;;8332882;28;19968;-48
2022/01/14 16:39:21;;;;;;;;;;;15.50;33.90;;;;;;8332524;28;19921;-52
2022/01/14 16:43:26;;;;;;;;;;;15.50;34.00;;;;;;8332069;28;20375;-50
2022/01/14 16:47:27;;;;;;;;;;;15.50;34.00;;;;;;8332743;28;19921;-53
2022/01/14 16:51:27;;;;;;;;;;;15.50;34.00;;;;;;8332342;28;19928;-50
2022/01/14 16:55:28;;;;;;;;;;;15.50;34.00;;;;;;8331849;28;19939;-50
2022/01/14 16:59:28;;;;;;;;;;;15.40;34.00;;;;;;8331780;28;20001;-48
2022/01/14 17:03:28;;;;;;;;;;;15.50;34.10;;;;;;8332187;28;19965;-49
2022/01/14 17:07:29;;;;;;;;;;;15.50;34.00;;;;;;8330613;28;19921;-49
2022/01/14 17:11:29;;;;;;;;;;;15.40;34.10;;;;;;8331907;28;19964;-50
2022/01/14 17:15:30;;;;;;;;;;;15.40;34.00;;;;;;8331733;28;19920;-49
2022/01/14 17:19:30;;;;;;;;;;;15.40;34.10;;;;;;8331229;28;19917;-51
2022/01/14 17:23:34;;;;;;;;;;;15.40;34.10;;;;;;8331534;28;19920;-50
2022/01/14 17:27:35;;;;;;;;;;;15.40;34.20;;;;;;8331363;28;19921;-50
2022/01/14 17:31:36;;;;;;;;;;;15.40;34.20;;;;;;8330493;28;19976;-49
2022/01/14 17:35:38;;;;;;;;;;;15.40;34.30;;;;;;8329091;28;19951;-49
2022/01/14 17:39:38;;;;;;;;;;;15.40;34.30;;;;;;8347829;28;19917;-50
2022/01/14 17:43:43;;;;;;;;;;;15.40;34.30;;;;;;8362160;28;19917;-49
2022/01/14 17:47:43;;;;;;;;;;;15.40;34.30;;;;;;8347507;28;19923;-49
2022/01/14 17:51:47;;;;;;;;;;;15.30;34.30;;;;;;8327496;28;19933;-50
2022/01/14 17:55:48;;;;;;;;;;;15.40;34.30;;;;;;8341609;28;19916;-49
2022/01/14 17:59:48;;;;;;;;;;;15.30;34.30;;;;;;8322665;28;20004;-49
2022/01/14 18:03:48;;;;;;;;;;;15.30;34.30;;;;;;8328008;28;20367;-49
2022/01/14 18:07:50;;;;;;;;;;;15.30;34.30;;;;;;8357979;28;20007;-49
2022/01/14 18:12:06;;;;;;;;;;;15.30;34.30;;;;;;8357307;28;19979;-49
2022/01/14 18:16:07;;;;;;;;;;;15.30;34.30;;;;;;8357891;28;19917;-51
2022/01/14 18:20:07;;;;;;;;;;;15.30;34.30;;;;;;8329634;28;19921;-48
2022/01/14 18:24:08;;;;;;;;;;;15.30;34.30;;;;;;8328254;28;20008;-49
2022/01/14 18:28:08;;;;;;;;;;;15.30;34.30;;;;;;8353361;28;20416;-51
2022/01/14 18:32:09;;;;;;;;;;;15.30;34.20;;;;;;8335543;28;20288;-48
2022/01/14 18:36:10;;;;;;;;;;;15.30;34.10;;;;;;8346332;28;19917;-48
2022/01/14 18:40:11;;;;;;;;;;;15.40;34.20;;;;;;8352803;28;20008;-48
2022/01/14 18:44:14;;;;;;;;;;;15.40;34.20;;;;;;8354569;28;19925;-48
2022/01/14 18:48:15;;;;;;;;;;;15.40;34.20;;;;;;8329388;28;19987;-50
2022/01/14 18:52:16;;;;;;;;;;;15.40;34.10;;;;;;8334479;28;19964;-51
2022/01/14 18:56:20;;;;;;;;;;;15.40;34.20;;;;;;8344255;28;19960;-49
2022/01/14 19:00:21;;;;;;;;;;;15.40;34.20;;;;;;8346771;28;19917;-50
2022/01/14 19:04:21;;;;;;;;;;;15.40;34.20;;;;;;8345567;28;19916;-49
2022/01/14 19:08:22;;;;;;;;;;;15.40;34.20;;;;;;8343051;28;19971;-49
2022/01/14 19:12:22;;;;;;;;;;;15.40;34.30;;;;;;8351635;28;20344;-49
2022/01/14 19:16:23;;;;;;;;;;;15.40;34.20;;;;;;8353891;28;19917;-48
2022/01/14 19:20:23;;;;;;;;;;;15.40;34.20;;;;;;8344489;28;20018;-48
2022/01/14 19:24:24;;;;;;;;;;;15.40;34.30;;;;;;8334153;28;20361;-48
2022/01/14 19:28:25;;;;;;;;;;;15.40;34.30;;;;;;8360993;28;19921;-49
2022/01/14 19:32:26;;;;;;;;;;;15.30;34.30;;;;;;8352830;28;20374;-49
2022/01/14 19:36:26;;;;;;;;;;;15.30;34.20;;;;;;8346279;28;19921;-50
2022/01/14 19:40:32;;;;;;;;;;;15.30;34.20;;;;;;8355167;28;19990;-48
2022/01/14 19:44:32;;;;;;;;;;;15.30;34.30;;;;;;8335762;28;19917;-50
2022/01/14 19:48:33;;;;;;;;;;;15.30;34.30;;;;;;8331501;28;19921;-51
2022/01/14 19:52:33;;;;;;;;;;;15.30;34.30;;;;;;8333203;28;19932;-48
2022/01/14 19:56:34;;;;;;;;;;;15.30;34.30;;;;;;8330460;28;19944;-49
2022/01/14 20:00:35;;;;;;;;;;;15.30;34.30;;;;;;8332287;28;20264;-48
2022/01/14 20:04:38;;;;;;;;;;;15.20;34.30;;;;;;8332855;28;19940;-48
2022/01/14 20:08:38;;;;;;;;;;;15.20;34.30;;;;;;8333908;28;19924;-48
2022/01/14 20:12:40;;;;;;;;;;;15.30;34.30;;;;;;8333689;28;20294;-52
2022/01/14 20:16:41;;;;;;;;;;;15.20;34.30;;;;;;8333064;28;19924;-49
2022/01/14 20:20:42;;;;;;;;;;;15.20;34.30;;;;;;8333199;28;19948;-49
2022/01/14 20:24:42;;;;;;;;;;;15.30;34.40;;;;;;8333446;28;19917;-48
2022/01/14 20:28:43;;;;;;;;;;;15.20;34.30;;;;;;8314950;28;19967;-48
2022/01/14 20:32:44;;;;;;;;;;;15.30;34.40;;;;;;8332298;28;19929;-48
2022/01/14 20:36:44;;;;;;;;;;;15.30;34.30;;;;;;8332485;28;19917;-45
2022/01/14 20:40:45;;;;;;;;;;;15.30;34.30;;;;;;8332546;28;20392;-50
2022/01/14 20:44:52;;;;;;;;;;;15.30;34.30;;;;;;8332839;28;19940;-48
2022/01/14 20:48:53;;;;;;;;;;;15.30;34.20;;;;;;8334545;28;20432;-49
2022/01/14 20:52:54;;;;;;;;;;;15.40;34.20;;;;;;8332141;28;19971;-50
2022/01/14 20:56:54;;;;;;;;;;;15.40;34.20;;;;;;8332307;28;20361;-48
2022/01/14 21:00:55;;;;;;;;;;;15.40;34.20;;;;;;8331727;28;20412;-48
2022/01/14 21:04:56;;;;;;;;;;;15.40;34.20;;;;;;8332290;28;19913;-48
2022/01/14 21:08:56;;;;;;;;;;;15.40;34.20;;;;;;8332081;28;19945;-48
2022/01/14 21:12:57;;;;;;;;;;;15.40;34.20;;;;;;8331157;28;19932;-48
2022/01/14 21:16:58;;;;;;;;;;;15.40;34.20;;;;;;8331891;28;19917;-48
2022/01/14 21:20:59;;;;;;;;;;;15.30;34.10;;;;;;8331663;28;19917;-48
2022/01/14 21:25:01;;;;;;;;;;;15.30;34.20;;;;;;8331150;28;19919;-48
2022/01/14 21:29:02;;;;;;;;;;;15.30;34.20;;;;;;8331192;28;19917;-49
2022/01/14 21:33:02;;;;;;;;;;;15.30;34.20;;;;;;8330929;28;19929;-49
2022/01/14 21:37:04;;;;;;;;;;;15.30;34.20;;;;;;8330585;28;19917;-48
2022/01/14 21:41:04;;;;;;;;;;;15.30;34.30;;;;;;8331059;28;19921;-48
2022/01/14 21:45:05;;;;;;;;;;;15.20;34.20;;;;;;8330031;28;19960;-49
2022/01/14 21:49:06;;;;;;;;;;;15.20;34.30;;;;;;8330068;28;20302;-49
2022/01/14 21:53:06;;;;;;;;;;;15.20;34.30;;;;;;8330715;28;19948;-49
2022/01/14 21:57:07;;;;;;;;;;;15.20;34.30;;;;;;8330453;28;19913;-49
2022/01/14 22:01:07;;;;;;;;;;;15.20;34.30;;;;;;8329905;28;19921;-49
2022/01/14 22:05:08;;;;;;;;;;;15.20;34.30;;;;;;8330757;28;19917;-49
2022/01/14 22:09:09;;;;;;;;;;;15.20;34.30;;;;;;8330523;28;20031;-49
2022/01/14 22:13:11;;;;;;;;;;;15.20;34.30;;;;;;8329531;28;19933;-48
2022/01/14 22:17:12;;;;;;;;;;;15.20;34.30;;;;;;8330458;28;20327;-49
2022/01/14 22:21:12;;;;;;;;;;;15.20;34.30;;;;;;8329930;28;19913;-49
2022/01/14 22:25:13;;;;;;;;;;;15.20;34.30;;;;;;8329696;28;20007;-50
2022/01/14 22:29:14;;;;;;;;;;;15.30;34.20;;;;;;8330124;28;20370;-49
2022/01/14 22:33:16;;;;;;;;;;;15.30;34.20;;;;;;8329667;28;19937;-50
2022/01/14 22:37:17;;;;;;;;;;;15.30;34.10;;;;;;8329208;28;20322;-49
2022/01/14 22:41:17;;;;;;;;;;;15.30;34.10;;;;;;8329706;28;20062;-50
2022/01/14 22:45:18;;;;;;;;;;;15.30;34.10;;;;;;8330001;28;19945;-49
2022/01/14 22:49:22;;;;;;;;;;;15.30;34.10;;;;;;8328907;28;19974;-49
2022/01/14 22:53:22;;;;;;;;;;;15.30;34.10;;;;;;8329814;28;20022;-50
2022/01/14 22:57:23;;;;;;;;;;;15.30;34.10;;;;;;8332110;28;20067;-49
2022/01/14 23:01:23;;;;;;;;;;;15.30;34.10;;;;;;8330653;28;19917;-49
2022/01/14 23:05:24;;;;;;;;;;;15.30;34.10;;;;;;8307407;28;19920;-50
2022/01/14 23:09:24;;;;;;;;;;;15.30;34.10;;;;;;8332205;28;19941;-49
2022/01/14 23:13:25;;;;;;;;;;;15.20;34.10;;;;;;8334963;28;19955;-48
2022/01/14 23:17:25;;;;;;;;;;;15.20;34.10;;;;;;8335228;28;20362;-51
2022/01/14 23:21:26;;;;;;;;;;;15.20;34.20;;;;;;8335353;28;19987;-52
2022/01/14 23:25:26;;;;;;;;;;;15.20;34.20;;;;;;8334993;28;19917;-49
2022/01/14 23:29:27;;;;;;;;;;;15.20;34.20;;;;;;8334745;28;19925;-50
2022/01/14 23:33:27;;;;;;;;;;;15.20;34.20;;;;;;8334889;28;20012;-49
2022/01/14 23:37:28;;;;;;;;;;;15.20;34.20;;;;;;8334144;28;19999;-49
2022/01/14 23:41:30;;;;;;;;;;;15.10;34.20;;;;;;8334563;28;19917;-49
2022/01/14 23:45:56;;;;;;;;;;;15.10;34.20;;;;;;8334902;28;19957;-50
2022/01/14 23:49:56;;;;;;;;;;;15.20;34.30;;;;;;8334270;28;19957;-49
2022/01/14 23:53:57;;;;;;;;;;;15.20;34.30;;;;;;8334157;28;19933;-50